sensor_id;sensor_type;location;lat;lon;timestamp;pressure;altitude;pressure_sealevel;temperature;humidity
66668;BME280;57205;51.438;-2.006;2022-08-19T00:00:08;100604.44;;;19.50;88.95
66668;BME280;57205;51.438;-2.006;2022-08-19T00:02:35;100607.81;;;19.47;89.47
66668;BME280;57205;51.438;-2.006;2022-08-19T00:05:01;100606.34;;;19.50;89.84
66668;BME280;57205;51.438;-2.006;2022-08-19T00:07:27;100599.66;;;19.47;89.45
66668;BME280;57205;51.438;-2.006;2022-08-19T00:09:53;100602.06;;;19.49;89.54
66668;BME280;57205;51.438;-2.006;2022-08-19T00:12:19;100594.06;;;19.52;89.21
66668;BME280;57205;51.438;-2.006;2022-08-19T00:14:44;100595.97;;;19.52;88.84
66668;BME280;57205;51.438;-2.006;2022-08-19T00:17:12;100583.53;;;19.51;88.92
66668;BME280;57205;51.438;-2.006;2022-08-19T00:19:38;100586.53;;;19.49;89.25
66668;BME280;57205;51.438;-2.006;2022-08-19T00:22:04;100585.75;;;19.49;89.33
66668;BME280;57205;51.438;-2.006;2022-08-19T00:24:30;100584.97;;;19.48;89.39
66668;BME280;57205;51.438;-2.006;2022-08-19T00:26:56;100589.44;;;19.44;89.67
66668;BME280;57205;51.438;-2.006;2022-08-19T00:29:23;100578.91;;;19.42;89.53
66668;BME280;57205;51.438;-2.006;2022-08-19T00:31:49;100585.91;;;19.43;89.44
66668;BME280;57205;51.438;-2.006;2022-08-19T00:34:18;100579.72;;;19.43;89.62
66668;BME280;57205;51.438;-2.006;2022-08-19T00:36:43;100580.34;;;19.40;89.64
66668;BME280;57205;51.438;-2.006;2022-08-19T00:39:10;100575.56;;;19.37;89.63
66668;BME280;57205;51.438;-2.006;2022-08-19T00:41:37;100587.84;;;19.34;89.98
66668;BME280;57205;51.438;-2.006;2022-08-19T00:44:07;100582.13;;;19.36;89.80
66668;BME280;57205;51.438;-2.006;2022-08-19T00:46:35;100586.75;;;19.35;89.67
66668;BME280;57205;51.438;-2.006;2022-08-19T00:49:07;100580.38;;;19.31;89.72
66668;BME280;57205;51.438;-2.006;2022-08-19T00:51:35;100592.31;;;19.30;89.77
66668;BME280;57205;51.438;-2.006;2022-08-19T00:54:02;100587.69;;;19.31;89.58
66668;BME280;57205;51.438;-2.006;2022-08-19T00:56:29;100583.91;;;19.32;89.41
66668;BME280;57205;51.438;-2.006;2022-08-19T00:58:59;100590.38;;;19.31;89.25
66668;BME280;57205;51.438;-2.006;2022-08-19T01:01:26;100586.09;;;19.30;89.67
66668;BME280;57205;51.438;-2.006;2022-08-19T01:03:53;100593.75;;;19.28;90.05
66668;BME280;57205;51.438;-2.006;2022-08-19T01:06:19;100586.72;;;19.27;90.54
66668;BME280;57205;51.438;-2.006;2022-08-19T01:08:45;100588.34;;;19.28;90.97
66668;BME280;57205;51.438;-2.006;2022-08-19T01:11:11;100587.84;;;19.26;91.20
66668;BME280;57205;51.438;-2.006;2022-08-19T01:13:37;100599.03;;;19.24;91.50
66668;BME280;57205;51.438;-2.006;2022-08-19T01:16:08;100596.66;;;19.23;91.51
66668;BME280;57205;51.438;-2.006;2022-08-19T01:18:40;100604.78;;;19.23;91.60
66668;BME280;57205;51.438;-2.006;2022-08-19T01:21:20;100599.19;;;19.19;91.99
66668;BME280;57205;51.438;-2.006;2022-08-19T01:23:47;100593.59;;;19.16;91.91
66668;BME280;57205;51.438;-2.006;2022-08-19T01:26:17;100592.50;;;19.08;92.45
66668;BME280;57205;51.438;-2.006;2022-08-19T01:28:45;100592.19;;;19.10;92.22
66668;BME280;57205;51.438;-2.006;2022-08-19T01:31:19;100585.81;;;19.06;92.23
66668;BME280;57205;51.438;-2.006;2022-08-19T01:33:47;100592.34;;;19.05;92.18
66668;BME280;57205;51.438;-2.006;2022-08-19T01:36:24;100596.81;;;19.01;92.02
66668;BME280;57205;51.438;-2.006;2022-08-19T01:38:51;100602.72;;;19.03;91.57
66668;BME280;57205;51.438;-2.006;2022-08-19T01:41:18;100599.53;;;19.01;91.54
66668;BME280;57205;51.438;-2.006;2022-08-19T01:43:44;100595.56;;;18.98;90.74
66668;BME280;57205;51.438;-2.006;2022-08-19T01:46:10;100595.06;;;18.96;90.50
66668;BME280;57205;51.438;-2.006;2022-08-19T01:48:39;100593.47;;;18.95;90.10
66668;BME280;57205;51.438;-2.006;2022-08-19T01:51:06;100604.63;;;18.94;90.38
66668;BME280;57205;51.438;-2.006;2022-08-19T01:53:32;100600.19;;;18.89;90.22
66668;BME280;57205;51.438;-2.006;2022-08-19T01:55:58;100598.91;;;18.87;90.70
66668;BME280;57205;51.438;-2.006;2022-08-19T01:58:28;100602.25;;;18.84;90.36
66668;BME280;57205;51.438;-2.006;2022-08-19T02:00:56;100598.75;;;18.83;90.25
66668;BME280;57205;51.438;-2.006;2022-08-19T02:03:22;100598.91;;;18.87;89.63
66668;BME280;57205;51.438;-2.006;2022-08-19T02:05:48;100611.97;;;18.85;90.11
66668;BME280;57205;51.438;-2.006;2022-08-19T02:08:18;100614.69;;;18.85;90.64
66668;BME280;57205;51.438;-2.006;2022-08-19T02:10:44;100615.50;;;18.85;90.48
66668;BME280;57205;51.438;-2.006;2022-08-19T02:13:11;100604.97;;;18.84;90.79
66668;BME280;57205;51.438;-2.006;2022-08-19T02:15:39;100607.97;;;18.82;90.08
66668;BME280;57205;51.438;-2.006;2022-08-19T02:18:05;100613.56;;;18.77;90.08
66668;BME280;57205;51.438;-2.006;2022-08-19T02:20:32;100604.47;;;18.73;90.45
66668;BME280;57205;51.438;-2.006;2022-08-19T02:22:58;100616.28;;;18.69;90.45
66668;BME280;57205;51.438;-2.006;2022-08-19T02:25:23;100608.47;;;18.67;90.10
66668;BME280;57205;51.438;-2.006;2022-08-19T02:27:48;100613.53;;;18.60;90.04
66668;BME280;57205;51.438;-2.006;2022-08-19T02:30:17;100617.72;;;18.58;90.70
66668;BME280;57205;51.438;-2.006;2022-08-19T02:32:42;100626.78;;;18.53;91.14
66668;BME280;57205;51.438;-2.006;2022-08-19T02:35:09;100622.31;;;18.48;91.13
66668;BME280;57205;51.438;-2.006;2022-08-19T02:37:35;100631.22;;;18.49;91.31
66668;BME280;57205;51.438;-2.006;2022-08-19T02:40:19;100630.44;;;18.48;91.21
66668;BME280;57205;51.438;-2.006;2022-08-19T02:42:45;100632.03;;;18.49;91.08
66668;BME280;57205;51.438;-2.006;2022-08-19T02:45:14;100622.63;;;18.47;90.83
66668;BME280;57205;51.438;-2.006;2022-08-19T02:47:40;100621.84;;;18.46;90.54
66668;BME280;57205;51.438;-2.006;2022-08-19T02:50:06;100625.47;;;18.42;90.22
66668;BME280;57205;51.438;-2.006;2022-08-19T02:52:32;100629.13;;;18.37;89.98
66668;BME280;57205;51.438;-2.006;2022-08-19T02:54:58;100626.53;;;18.32;89.60
66668;BME280;57205;51.438;-2.006;2022-08-19T02:57:24;100628.13;;;18.25;89.97
66668;BME280;57205;51.438;-2.006;2022-08-19T02:59:50;100618.84;;;18.17;90.06
66668;BME280;57205;51.438;-2.006;2022-08-19T03:02:15;100626.63;;;18.10;90.19
66668;BME280;57205;51.438;-2.006;2022-08-19T03:04:42;100629.81;;;18.04;90.47
66668;BME280;57205;51.438;-2.006;2022-08-19T03:07:09;100631.22;;;18.01;90.87
66668;BME280;57205;51.438;-2.006;2022-08-19T03:09:37;100627.53;;;17.97;91.24
66668;BME280;57205;51.438;-2.006;2022-08-19T03:12:04;100628.66;;;17.96;91.44
66668;BME280;57205;51.438;-2.006;2022-08-19T03:14:36;100636.31;;;17.94;91.58
66668;BME280;57205;51.438;-2.006;2022-08-19T03:17:03;100639.31;;;17.93;91.56
66668;BME280;57205;51.438;-2.006;2022-08-19T03:19:30;100634.34;;;17.86;91.36
66668;BME280;57205;51.438;-2.006;2022-08-19T03:21:56;100633.38;;;17.82;91.47
66668;BME280;57205;51.438;-2.006;2022-08-19T03:24:23;100644.81;;;17.79;91.45
66668;BME280;57205;51.438;-2.006;2022-08-19T03:26:51;100637.50;;;17.80;91.96
66668;BME280;57205;51.438;-2.006;2022-08-19T03:29:19;100647.22;;;17.81;91.96
66668;BME280;57205;51.438;-2.006;2022-08-19T03:31:45;100646.41;;;17.80;92.06
66668;BME280;57205;51.438;-2.006;2022-08-19T03:34:14;100649.13;;;17.80;92.01
66668;BME280;57205;51.438;-2.006;2022-08-19T03:36:40;100645.31;;;17.81;91.98
66668;BME280;57205;51.438;-2.006;2022-08-19T03:39:06;100641.81;;;17.81;92.10
66668;BME280;57205;51.438;-2.006;2022-08-19T03:41:37;100636.56;;;17.84;92.02
66668;BME280;57205;51.438;-2.006;2022-08-19T03:44:03;100645.66;;;17.88;91.66
66668;BME280;57205;51.438;-2.006;2022-08-19T03:46:32;100650.28;;;17.88;91.35
66668;BME280;57205;51.438;-2.006;2022-08-19T03:49:00;100648.38;;;17.88;90.92
66668;BME280;57205;51.438;-2.006;2022-08-19T03:51:28;100648.38;;;17.88;90.49
66668;BME280;57205;51.438;-2.006;2022-08-19T03:53:56;100650.09;;;17.84;89.69
66668;BME280;57205;51.438;-2.006;2022-08-19T03:56:23;100650.25;;;17.79;89.46
66668;BME280;57205;51.438;-2.006;2022-08-19T03:58:51;100647.84;;;17.78;89.19
66668;BME280;57205;51.438;-2.006;2022-08-19T04:01:20;100650.88;;;17.76;89.32
66668;BME280;57205;51.438;-2.006;2022-08-19T04:03:47;100651.34;;;17.78;88.89
66668;BME280;57205;51.438;-2.006;2022-08-19T04:06:15;100653.25;;;17.78;88.32
66668;BME280;57205;51.438;-2.006;2022-08-19T04:08:42;100652.94;;;17.79;88.04
66668;BME280;57205;51.438;-2.006;2022-08-19T04:11:10;100656.28;;;17.76;87.78
66668;BME280;57205;51.438;-2.006;2022-08-19T04:13:36;100665.50;;;17.75;88.11
66668;BME280;57205;51.438;-2.006;2022-08-19T04:16:02;100667.13;;;17.76;87.96
66668;BME280;57205;51.438;-2.006;2022-08-19T04:18:29;100653.59;;;17.76;87.86
66668;BME280;57205;51.438;-2.006;2022-08-19T04:20:58;100661.69;;;17.76;88.24
66668;BME280;57205;51.438;-2.006;2022-08-19T04:23:24;100673.31;;;17.77;88.25
66668;BME280;57205;51.438;-2.006;2022-08-19T04:25:49;100673.31;;;17.77;87.99
66668;BME280;57205;51.438;-2.006;2022-08-19T04:28:16;100675.22;;;17.76;87.93
66668;BME280;57205;51.438;-2.006;2022-08-19T04:30:44;100680.16;;;17.74;88.14
66668;BME280;57205;51.438;-2.006;2022-08-19T04:33:11;100674.25;;;17.72;88.66
66668;BME280;57205;51.438;-2.006;2022-08-19T04:35:42;100676.97;;;17.72;88.57
66668;BME280;57205;51.438;-2.006;2022-08-19T04:38:09;100677.72;;;17.73;89.02
66668;BME280;57205;51.438;-2.006;2022-08-19T04:40:40;100676.31;;;17.75;88.82
66668;BME280;57205;51.438;-2.006;2022-08-19T04:43:24;100676.31;;;17.75;88.97
66668;BME280;57205;51.438;-2.006;2022-08-19T04:45:50;100673.75;;;17.70;89.03
66668;BME280;57205;51.438;-2.006;2022-08-19T04:48:17;100677.88;;;17.68;88.98
66668;BME280;57205;51.438;-2.006;2022-08-19T04:50:58;100679.78;;;17.67;88.92
66668;BME280;57205;51.438;-2.006;2022-08-19T04:53:29;100679.59;;;17.64;88.70
66668;BME280;57205;51.438;-2.006;2022-08-19T04:55:57;100699.97;;;17.61;88.48
66668;BME280;57205;51.438;-2.006;2022-08-19T04:58:25;100693.88;;;17.56;88.47
66668;BME280;57205;51.438;-2.006;2022-08-19T05:00:52;100687.50;;;17.51;88.32
66668;BME280;57205;51.438;-2.006;2022-08-19T05:03:18;100691.59;;;17.49;88.60
66668;BME280;57205;51.438;-2.006;2022-08-19T05:05:44;100690.50;;;17.50;88.60
66668;BME280;57205;51.438;-2.006;2022-08-19T05:08:15;100691.28;;;17.50;88.87
66668;BME280;57205;51.438;-2.006;2022-08-19T05:10:46;100698.00;;;17.53;89.02
66668;BME280;57205;51.438;-2.006;2022-08-19T05:13:13;100708.19;;;17.56;88.93
66668;BME280;57205;51.438;-2.006;2022-08-19T05:15:41;100707.59;;;17.59;88.72
66668;BME280;57205;51.438;-2.006;2022-08-19T05:18:06;100714.47;;;17.65;88.65
66668;BME280;57205;51.438;-2.006;2022-08-19T05:20:50;100709.53;;;17.67;88.61
66668;BME280;57205;51.438;-2.006;2022-08-19T05:23:51;100710.03;;;17.69;88.06
66668;BME280;57205;51.438;-2.006;2022-08-19T05:26:16;100710.03;;;17.69;86.57
66668;BME280;57205;51.438;-2.006;2022-08-19T05:28:41;100707.63;;;17.68;86.35
66668;BME280;57205;51.438;-2.006;2022-08-19T05:31:07;100709.03;;;17.65;85.56
66668;BME280;57205;51.438;-2.006;2022-08-19T05:33:32;100714.94;;;17.67;85.76
66668;BME280;57205;51.438;-2.006;2022-08-19T05:35:58;100721.66;;;17.70;85.68
66668;BME280;57205;51.438;-2.006;2022-08-19T05:38:24;100721.50;;;17.66;85.66
66668;BME280;57205;51.438;-2.006;2022-08-19T05:40:51;100728.00;;;17.65;85.92
66668;BME280;57205;51.438;-2.006;2022-08-19T05:43:16;100732.31;;;17.66;85.87
66668;BME280;57205;51.438;-2.006;2022-08-19T05:45:42;100736.91;;;17.66;85.95
66668;BME280;57205;51.438;-2.006;2022-08-19T05:48:12;100742.66;;;17.64;85.80
66668;BME280;57205;51.438;-2.006;2022-08-19T05:50:39;100743.63;;;17.68;85.65
66668;BME280;57205;51.438;-2.006;2022-08-19T05:53:05;100743.00;;;17.71;85.98
66668;BME280;57205;51.438;-2.006;2022-08-19T05:55:31;100743.09;;;17.80;85.86
66668;BME280;57205;51.438;-2.006;2022-08-19T05:57:57;100753.81;;;17.93;84.95
66668;BME280;57205;51.438;-2.006;2022-08-19T06:00:23;100749.56;;;18.01;84.43
66668;BME280;57205;51.438;-2.006;2022-08-19T06:02:48;100756.78;;;18.05;84.06
66668;BME280;57205;51.438;-2.006;2022-08-19T06:05:14;100760.19;;;18.19;83.63
66668;BME280;57205;51.438;-2.006;2022-08-19T06:07:39;100760.97;;;18.42;82.35
66668;BME280;57205;51.438;-2.006;2022-08-19T06:10:08;100756.28;;;18.65;81.48
66668;BME280;57205;51.438;-2.006;2022-08-19T06:12:34;100763.41;;;19.17;80.03
66668;BME280;57205;51.438;-2.006;2022-08-19T06:15:03;100761.31;;;19.99;75.56
66668;BME280;57205;51.438;-2.006;2022-08-19T06:17:29;100760.88;;;20.81;71.85
66668;BME280;57205;51.438;-2.006;2022-08-19T06:19:56;100764.16;;;21.45;67.63
66668;BME280;57205;51.438;-2.006;2022-08-19T06:22:23;100755.75;;;21.71;66.62
66668;BME280;57205;51.438;-2.006;2022-08-19T06:24:49;100761.44;;;21.78;64.32
66668;BME280;57205;51.438;-2.006;2022-08-19T06:27:18;100762.34;;;21.90;64.20
66668;BME280;57205;51.438;-2.006;2022-08-19T06:29:43;100762.47;;;22.06;63.85
66668;BME280;57205;51.438;-2.006;2022-08-19T06:32:10;100757.75;;;22.27;62.27
66668;BME280;57205;51.438;-2.006;2022-08-19T06:34:36;100760.00;;;22.13;62.08
66668;BME280;57205;51.438;-2.006;2022-08-19T06:37:02;100764.50;;;21.97;62.41
66668;BME280;57205;51.438;-2.006;2022-08-19T06:39:31;100761.75;;;22.29;61.58
66668;BME280;57205;51.438;-2.006;2022-08-19T06:42:00;100754.03;;;23.04;59.59
66668;BME280;57205;51.438;-2.006;2022-08-19T06:44:27;100760.44;;;23.75;55.69
66668;BME280;57205;51.438;-2.006;2022-08-19T06:46:54;100766.72;;;24.66;53.26
66668;BME280;57205;51.438;-2.006;2022-08-19T06:49:21;100766.47;;;25.02;51.45
66668;BME280;57205;51.438;-2.006;2022-08-19T06:51:48;100771.13;;;25.36;50.63
66668;BME280;57205;51.438;-2.006;2022-08-19T06:54:14;100776.91;;;25.88;48.15
66668;BME280;57205;51.438;-2.006;2022-08-19T06:56:41;100773.56;;;25.98;46.56
66668;BME280;57205;51.438;-2.006;2022-08-19T06:59:11;100773.41;;;25.69;46.43
66668;BME280;57205;51.438;-2.006;2022-08-19T07:01:43;100771.88;;;25.52;46.51
66668;BME280;57205;51.438;-2.006;2022-08-19T07:04:11;100782.56;;;25.76;46.31
66668;BME280;57205;51.438;-2.006;2022-08-19T07:06:37;100780.75;;;25.84;45.83
66668;BME280;57205;51.438;-2.006;2022-08-19T07:09:06;100785.81;;;26.46;44.90
66668;BME280;57205;51.438;-2.006;2022-08-19T07:11:33;100787.59;;;26.58;42.34
66668;BME280;57205;51.438;-2.006;2022-08-19T07:13:59;100795.00;;;26.76;40.67
66668;BME280;57205;51.438;-2.006;2022-08-19T07:16:25;100804.22;;;26.91;38.94
66668;BME280;57205;51.438;-2.006;2022-08-19T07:18:52;100805.91;;;26.50;39.24
66668;BME280;57205;51.438;-2.006;2022-08-19T07:21:23;100806.13;;;26.87;38.38
66668;BME280;57205;51.438;-2.006;2022-08-19T07:23:51;100805.59;;;27.04;37.76
66668;BME280;57205;51.438;-2.006;2022-08-19T07:26:26;100811.03;;;27.27;38.09
66668;BME280;57205;51.438;-2.006;2022-08-19T07:28:53;100817.50;;;27.12;37.86
66668;BME280;57205;51.438;-2.006;2022-08-19T07:31:22;100814.59;;;27.53;38.35
66668;BME280;57205;51.438;-2.006;2022-08-19T07:33:49;100816.47;;;27.79;37.15
66668;BME280;57205;51.438;-2.006;2022-08-19T07:36:20;100815.75;;;27.85;36.76
66668;BME280;57205;51.438;-2.006;2022-08-19T07:38:48;100810.19;;;27.78;36.36
66668;BME280;57205;51.438;-2.006;2022-08-19T07:41:25;100813.72;;;27.79;35.93
66668;BME280;57205;51.438;-2.006;2022-08-19T07:43:52;100809.25;;;27.97;36.32
66668;BME280;57205;51.438;-2.006;2022-08-19T07:46:19;100802.75;;;28.16;35.05
66668;BME280;57205;51.438;-2.006;2022-08-19T07:48:47;100814.56;;;28.53;34.22
66668;BME280;57205;51.438;-2.006;2022-08-19T07:51:18;100803.19;;;28.18;34.41
66668;BME280;57205;51.438;-2.006;2022-08-19T07:53:45;100806.38;;;27.90;35.23
66668;BME280;57205;51.438;-2.006;2022-08-19T07:56:12;100810.59;;;28.14;35.11
66668;BME280;57205;51.438;-2.006;2022-08-19T07:58:41;100825.63;;;28.60;32.79
66668;BME280;57205;51.438;-2.006;2022-08-19T08:01:09;100827.22;;;28.61;31.40
66668;BME280;57205;51.438;-2.006;2022-08-19T08:03:36;100827.22;;;28.61;30.73
66668;BME280;57205;51.438;-2.006;2022-08-19T08:06:20;100830.72;;;28.58;31.17
66668;BME280;57205;51.438;-2.006;2022-08-19T08:09:05;100829.97;;;28.61;31.18
66668;BME280;57205;51.438;-2.006;2022-08-19T08:11:42;100830.44;;;28.70;31.10
66668;BME280;57205;51.438;-2.006;2022-08-19T08:14:08;100828.75;;;28.58;31.48
66668;BME280;57205;51.438;-2.006;2022-08-19T08:16:36;100833.56;;;28.65;30.47
66668;BME280;57205;51.438;-2.006;2022-08-19T08:19:06;100836.16;;;28.95;29.97
66668;BME280;57205;51.438;-2.006;2022-08-19T08:21:33;100823.09;;;29.42;29.75
66668;BME280;57205;51.438;-2.006;2022-08-19T08:23:59;100832.50;;;29.34;29.09
66668;BME280;57205;51.438;-2.006;2022-08-19T08:26:25;100847.69;;;29.11;29.41
66668;BME280;57205;51.438;-2.006;2022-08-19T08:28:52;100840.47;;;28.92;30.21
66668;BME280;57205;51.438;-2.006;2022-08-19T08:31:18;100852.28;;;28.93;28.86
66668;BME280;57205;51.438;-2.006;2022-08-19T08:33:47;100853.28;;;28.34;29.93
66668;BME280;57205;51.438;-2.006;2022-08-19T08:36:13;100853.25;;;27.97;29.76
66668;BME280;57205;51.438;-2.006;2022-08-19T08:38:40;100857.56;;;28.28;30.21
66668;BME280;57205;51.438;-2.006;2022-08-19T08:43:46;100868.75;;;29.36;27.33
66668;BME280;57205;51.438;-2.006;2022-08-19T08:47:05;100868.34;;;29.34;27.75
66668;BME280;57205;51.438;-2.006;2022-08-19T08:52:18;100858.50;;;28.42;29.36
66668;BME280;57205;51.438;-2.006;2022-08-19T08:54:47;100862.84;;;28.47;29.12
66668;BME280;57205;51.438;-2.006;2022-08-19T08:57:19;100869.75;;;28.30;27.97
66668;BME280;57205;51.438;-2.006;2022-08-19T08:59:48;100860.19;;;27.87;28.95
66668;BME280;57205;51.438;-2.006;2022-08-19T09:02:17;100877.56;;;28.25;28.49
66668;BME280;57205;51.438;-2.006;2022-08-19T09:04:43;100866.09;;;27.89;28.02
66668;BME280;57205;51.438;-2.006;2022-08-19T09:07:13;100872.97;;;27.43;28.98
66668;BME280;57205;51.438;-2.006;2022-08-19T09:09:46;100877.25;;;27.70;29.49
66668;BME280;57205;51.438;-2.006;2022-08-19T09:15:28;100869.47;;;28.79;26.71
66668;BME280;57205;51.438;-2.006;2022-08-19T09:17:59;100874.63;;;28.84;26.07
66668;BME280;57205;51.438;-2.006;2022-08-19T09:20:28;100879.53;;;29.08;25.55
66668;BME280;57205;51.438;-2.006;2022-08-19T09:22:54;100883.94;;;28.69;25.79
66668;BME280;57205;51.438;-2.006;2022-08-19T09:25:22;100876.72;;;28.21;26.20
66668;BME280;57205;51.438;-2.006;2022-08-19T09:27:48;100879.56;;;28.61;26.31
66668;BME280;57205;51.438;-2.006;2022-08-19T09:30:20;100880.22;;;28.91;25.14
66668;BME280;57205;51.438;-2.006;2022-08-19T09:32:47;100870.38;;;28.50;26.03
66668;BME280;57205;51.438;-2.006;2022-08-19T09:35:14;100869.69;;;28.60;25.50
66668;BME280;57205;51.438;-2.006;2022-08-19T09:37:40;100871.97;;;28.18;26.29
66668;BME280;57205;51.438;-2.006;2022-08-19T09:40:06;100874.13;;;27.98;26.55
66668;BME280;57205;51.438;-2.006;2022-08-19T09:42:35;100867.72;;;27.90;27.40
66668;BME280;57205;51.438;-2.006;2022-08-19T09:45:01;100871.63;;;28.23;26.42
66668;BME280;57205;51.438;-2.006;2022-08-19T09:47:28;100872.94;;;27.99;26.86
66668;BME280;57205;51.438;-2.006;2022-08-19T09:49:54;100864.81;;;27.80;27.54
66668;BME280;57205;51.438;-2.006;2022-08-19T09:52:20;100863.31;;;27.86;27.40
66668;BME280;57205;51.438;-2.006;2022-08-19T09:54:46;100866.91;;;28.20;27.30
66668;BME280;57205;51.438;-2.006;2022-08-19T09:57:11;100860.00;;;28.36;26.27
66668;BME280;57205;51.438;-2.006;2022-08-19T09:59:38;100862.44;;;28.45;26.77
66668;BME280;57205;51.438;-2.006;2022-08-19T10:02:04;100868.16;;;28.62;26.64
66668;BME280;57205;51.438;-2.006;2022-08-19T10:04:29;100866.31;;;29.24;25.41
66668;BME280;57205;51.438;-2.006;2022-08-19T10:07:14;100875.75;;;29.23;25.36
66668;BME280;57205;51.438;-2.006;2022-08-19T10:09:39;100870.00;;;28.95;25.38
66668;BME280;57205;51.438;-2.006;2022-08-19T10:12:06;100879.47;;;28.98;25.28
66668;BME280;57205;51.438;-2.006;2022-08-19T10:14:32;100875.28;;;28.67;25.60
66668;BME280;57205;51.438;-2.006;2022-08-19T10:16:58;100881.63;;;28.38;26.26
66668;BME280;57205;51.438;-2.006;2022-08-19T10:19:25;100882.38;;;28.68;25.84
66668;BME280;57205;51.438;-2.006;2022-08-19T10:21:53;100874.13;;;28.35;25.96
66668;BME280;57205;51.438;-2.006;2022-08-19T10:24:19;100878.44;;;28.69;26.03
66668;BME280;57205;51.438;-2.006;2022-08-19T10:26:45;100882.53;;;28.85;25.78
66668;BME280;57205;51.438;-2.006;2022-08-19T10:29:13;100875.50;;;28.95;25.30
66668;BME280;57205;51.438;-2.006;2022-08-19T10:31:41;100878.44;;;29.13;25.51
66668;BME280;57205;51.438;-2.006;2022-08-19T10:34:07;100887.28;;;28.88;25.57
66668;BME280;57205;51.438;-2.006;2022-08-19T10:36:35;100890.31;;;28.40;26.59
66668;BME280;57205;51.438;-2.006;2022-08-19T10:39:04;100881.94;;;28.29;26.51
66668;BME280;57205;51.438;-2.006;2022-08-19T10:41:33;100880.97;;;28.88;26.52
66668;BME280;57205;51.438;-2.006;2022-08-19T10:44:05;100886.41;;;28.81;26.26
66668;BME280;57205;51.438;-2.006;2022-08-19T10:46:33;100884.56;;;28.96;26.25
66668;BME280;57205;51.438;-2.006;2022-08-19T10:49:04;100880.69;;;29.00;25.90
66668;BME280;57205;51.438;-2.006;2022-08-19T10:51:30;100874.38;;;28.56;26.97
66668;BME280;57205;51.438;-2.006;2022-08-19T10:54:14;100876.50;;;28.73;27.02
66668;BME280;57205;51.438;-2.006;2022-08-19T10:56:40;100876.97;;;28.42;27.58
66668;BME280;57205;51.438;-2.006;2022-08-19T10:59:23;100872.34;;;27.83;27.88
66668;BME280;57205;51.438;-2.006;2022-08-19T11:01:50;100882.22;;;27.32;28.95
66668;BME280;57205;51.438;-2.006;2022-08-19T11:04:17;100876.44;;;26.91;29.56
66668;BME280;57205;51.438;-2.006;2022-08-19T11:06:45;100875.03;;;26.37;30.88
66668;BME280;57205;51.438;-2.006;2022-08-19T11:09:14;100876.94;;;25.94;30.95
66668;BME280;57205;51.438;-2.006;2022-08-19T11:11:40;100872.59;;;25.93;31.96
66668;BME280;57205;51.438;-2.006;2022-08-19T11:14:14;100881.63;;;25.75;32.62
66668;BME280;57205;51.438;-2.006;2022-08-19T11:16:41;100878.09;;;25.93;32.10
66668;BME280;57205;51.438;-2.006;2022-08-19T11:19:09;100881.88;;;25.70;32.64
66668;BME280;57205;51.438;-2.006;2022-08-19T11:21:40;100884.25;;;25.52;32.85
66668;BME280;57205;51.438;-2.006;2022-08-19T11:24:13;100878.53;;;25.42;33.54
66668;BME280;57205;51.438;-2.006;2022-08-19T11:26:40;100887.28;;;25.47;34.30
66668;BME280;57205;51.438;-2.006;2022-08-19T11:29:08;100884.69;;;25.54;33.73
66668;BME280;57205;51.438;-2.006;2022-08-19T11:31:37;100883.00;;;25.50;33.76
66668;BME280;57205;51.438;-2.006;2022-08-19T11:34:06;100891.47;;;25.60;33.85
66668;BME280;57205;51.438;-2.006;2022-08-19T11:36:32;100885.63;;;25.62;33.39
66668;BME280;57205;51.438;-2.006;2022-08-19T11:38:58;100882.53;;;25.63;33.16
66668;BME280;57205;51.438;-2.006;2022-08-19T11:41:24;100879.25;;;25.73;33.21
66668;BME280;57205;51.438;-2.006;2022-08-19T11:43:51;100891.88;;;25.43;33.43
66668;BME280;57205;51.438;-2.006;2022-08-19T11:46:22;100891.31;;;25.53;33.81
66668;BME280;57205;51.438;-2.006;2022-08-19T11:48:49;100876.53;;;25.58;34.00
66668;BME280;57205;51.438;-2.006;2022-08-19T11:51:19;100875.06;;;25.45;33.95
66668;BME280;57205;51.438;-2.006;2022-08-19T11:53:45;100875.25;;;25.21;34.45
66668;BME280;57205;51.438;-2.006;2022-08-19T11:56:12;100882.34;;;25.06;34.50
66668;BME280;57205;51.438;-2.006;2022-08-19T11:58:38;100887.91;;;25.09;34.29
66668;BME280;57205;51.438;-2.006;2022-08-19T12:01:08;100887.56;;;24.95;34.98
66668;BME280;57205;51.438;-2.006;2022-08-19T12:03:34;100886.94;;;24.86;34.96
66668;BME280;57205;51.438;-2.006;2022-08-19T12:06:10;100877.97;;;24.43;35.47
66668;BME280;57205;51.438;-2.006;2022-08-19T12:08:38;100872.66;;;24.50;35.52
66668;BME280;57205;51.438;-2.006;2022-08-19T12:11:05;100877.09;;;24.54;35.86
66668;BME280;57205;51.438;-2.006;2022-08-19T12:13:34;100877.94;;;24.86;35.96
66668;BME280;57205;51.438;-2.006;2022-08-19T12:15:59;100880.50;;;24.94;35.20
66668;BME280;57205;51.438;-2.006;2022-08-19T12:18:26;100883.06;;;24.87;34.95
66668;BME280;57205;51.438;-2.006;2022-08-19T12:20:52;100879.03;;;24.69;35.30
66668;BME280;57205;51.438;-2.006;2022-08-19T12:23:19;100885.81;;;24.44;35.93
66668;BME280;57205;51.438;-2.006;2022-08-19T12:25:48;100886.16;;;24.43;36.09
66668;BME280;57205;51.438;-2.006;2022-08-19T12:28:18;100877.88;;;24.55;36.62
66668;BME280;57205;51.438;-2.006;2022-08-19T12:30:44;100891.31;;;24.60;36.02
66668;BME280;57205;51.438;-2.006;2022-08-19T12:33:10;100890.69;;;24.51;35.90
66668;BME280;57205;51.438;-2.006;2022-08-19T12:35:40;100893.22;;;24.44;36.67
66668;BME280;57205;51.438;-2.006;2022-08-19T12:38:06;100892.56;;;24.19;36.96
66668;BME280;57205;51.438;-2.006;2022-08-19T12:40:31;100887.41;;;24.17;37.69
66668;BME280;57205;51.438;-2.006;2022-08-19T12:42:57;100895.38;;;24.23;37.68
66668;BME280;57205;51.438;-2.006;2022-08-19T12:45:22;100892.44;;;24.15;36.57
66668;BME280;57205;51.438;-2.006;2022-08-19T12:47:48;100896.13;;;24.07;37.03
66668;BME280;57205;51.438;-2.006;2022-08-19T12:50:14;100888.75;;;24.24;36.42
66668;BME280;57205;51.438;-2.006;2022-08-19T12:52:40;100893.97;;;24.29;36.71